createdAt,value
2019-02-27T11:28:22.797Z,36.88
2019-02-27T11:29:23.917Z,36.68
2019-02-27T11:30:22.579Z,37.35
2019-02-27T11:31:22.580Z,37.26
2019-02-27T11:32:23.902Z,37.55
2019-02-27T11:33:25.946Z,37.26
2019-02-27T11:34:22.574Z,37.45
2019-02-27T11:35:25.030Z,37.26
2019-02-27T11:36:22.572Z,37.45
2019-02-27T11:37:22.573Z,37.35
2019-02-27T11:38:24.868Z,37.74
2019-02-27T11:39:22.572Z,38.43
2019-02-27T11:40:22.569Z,38.91
2019-02-27T11:41:22.570Z,39.49
2019-02-27T11:42:22.568Z,39.20
2019-02-27T11:44:13.974Z,39.20
2019-02-27T11:45:09.995Z,40.16
2019-02-27T12:00:43.667Z,40.93
2019-02-27T12:01:43.669Z,39.22
2019-02-27T12:02:43.665Z,38.35
2019-02-27T12:03:45.935Z,37.77
2019-02-27T12:04:43.668Z,37.89
2019-02-27T12:05:43.673Z,37.89
2019-02-27T12:06:43.671Z,37.51
2019-02-27T12:07:43.675Z,37.51
2019-02-27T12:08:43.673Z,37.62
2019-02-27T12:09:43.677Z,36.95
2019-02-27T12:10:43.676Z,37.72
2019-02-27T12:11:48.310Z,37.43
2019-02-27T12:12:43.678Z,37.24
2019-02-27T12:13:43.682Z,37.52
2019-02-27T12:14:43.680Z,36.76
2019-02-27T12:15:44.266Z,36.76
2019-02-27T12:16:43.681Z,37.43
2019-02-27T12:17:43.685Z,37.34
2019-02-27T12:18:43.685Z,37.43
2019-02-27T12:19:45.196Z,37.35
2019-02-27T12:20:43.687Z,37.54
2019-02-27T12:21:43.690Z,37.06
2019-02-27T12:22:43.691Z,36.60
2019-02-27T12:23:44.189Z,37.27
2019-02-27T12:24:43.691Z,36.11
2019-02-27T12:25:43.696Z,36.04
2019-02-27T12:26:43.695Z,35.36
2019-02-27T12:27:49.136Z,35.96
2019-02-27T12:28:43.698Z,36.35
2019-02-27T12:29:43.703Z,36.81
2019-02-27T12:30:43.705Z,37.58
2019-02-27T12:31:47.921Z,36.73
2019-02-27T12:32:43.714Z,35.59
2019-02-27T12:33:43.720Z,35.21
2019-02-27T12:34:43.724Z,35.22
2019-02-27T12:35:44.956Z,34.47
2019-02-27T12:36:43.734Z,33.42
2019-02-27T12:37:43.750Z,33.23
2019-02-27T12:38:43.746Z,32.26
2019-02-27T12:39:43.755Z,32.07
2019-02-27T12:40:43.772Z,32.65
2019-02-27T12:41:43.775Z,32.73
2019-02-27T12:42:43.778Z,33.04
2019-02-27T12:43:43.784Z,32.75
2019-02-27T12:44:43.798Z,33.14
2019-02-27T12:45:43.799Z,32.84
2019-02-27T12:46:43.805Z,32.86
2019-02-27T12:47:43.816Z,32.86
2019-02-27T12:48:46.094Z,32.84
2019-02-27T12:49:43.832Z,33.04
2019-02-27T12:50:44.851Z,33.23
2019-02-27T12:54:19.596Z,34.58
2019-02-27T12:55:20.470Z,34.39
2019-02-27T16:30:32.398Z,42.18
2019-02-27T16:31:28.600Z,42.08
2019-02-27T16:32:29.403Z,42.66
2019-02-27T17:35:25.741Z,48.78
2019-02-27T17:36:25.736Z,48.97
2019-02-27T17:37:25.734Z,48.69
2019-02-27T17:38:25.732Z,49.45
2019-02-27T17:39:28.988Z,48.97
2019-02-27T17:40:25.977Z,49.36
2019-02-27T17:41:26.190Z,49.26
2019-02-27T17:42:26.370Z,48.97
2019-02-27T17:43:29.463Z,48.88
2019-02-27T17:44:25.722Z,48.78
2019-02-27T17:45:25.716Z,48.97
2019-02-27T17:46:25.720Z,48.78
2019-02-27T17:47:28.562Z,48.88
2019-02-27T17:48:25.714Z,48.78
2019-02-27T17:49:26.189Z,49.55
2019-02-27T17:50:30.899Z,49.36
2019-02-27T17:51:25.708Z,48.95
2019-02-27T17:52:25.707Z,49.24
2019-02-27T17:53:25.706Z,49.14
2019-02-27T17:54:25.709Z,49.16
2019-02-27T17:55:25.706Z,49.14
2019-02-27T17:56:25.702Z,49.43
2019-02-27T17:57:25.699Z,49.43
2019-02-27T17:58:25.701Z,49.52
2019-02-27T17:59:25.697Z,49.71
2019-02-27T18:00:25.699Z,49.81
2019-02-27T18:01:26.307Z,50.00
2019-02-27T18:02:25.696Z,49.71
2019-02-27T18:03:25.693Z,49.81
2019-02-27T18:04:25.699Z,50.67
2019-02-27T18:05:26.173Z,50.58
2019-02-27T18:06:25.693Z,50.38
2019-02-27T18:07:34.100Z,50.48
2019-02-27T18:08:25.688Z,50.38
2019-02-27T18:09:26.372Z,50.58
2019-02-27T18:10:26.094Z,50.87
2019-02-27T18:17:17.937Z,52.01
2019-02-27T18:18:17.936Z,52.66
2019-02-27T18:22:33.722Z,54.19
2019-02-27T18:24:34.412Z,54.36
2019-02-27T18:25:33.712Z,54.26
2019-02-27T18:26:33.715Z,54.45
2019-02-27T18:27:33.711Z,53.78
2019-02-27T18:28:33.796Z,53.69
2019-02-27T18:29:33.705Z,53.20
2019-02-27T18:30:33.706Z,53.20
2019-02-27T18:31:33.703Z,53.30
2019-02-27T18:32:33.704Z,53.59
2019-02-27T18:33:33.699Z,53.88
2019-02-27T18:36:04.474Z,54.55
2019-02-27T18:37:01.197Z,54.61
2019-02-27T18:38:01.194Z,55.02
2019-02-27T18:39:02.519Z,55.10
2019-02-27T18:40:01.193Z,54.71
2019-02-27T18:41:01.443Z,54.80
2019-02-27T18:42:58.630Z,55.29
2019-02-27T18:44:04.167Z,55.19
2019-02-27T18:44:58.637Z,55.47
2019-02-27T18:45:58.628Z,56.15
2019-02-27T19:06:37.105Z,60.68
2019-02-27T19:07:37.105Z,60.87
2019-02-27T19:08:37.106Z,61.92
2019-02-27T19:09:37.100Z,62.21
2019-02-27T19:10:41.389Z,62.46
2019-02-27T19:11:37.349Z,63.23
2019-02-27T19:12:37.091Z,64.37
2019-02-27T19:13:37.097Z,63.99
2019-02-27T19:15:45.277Z,65.80
2019-02-27T19:17:46.994Z,66.19
2019-02-27T19:18:46.993Z,66.38
2019-02-27T19:22:27.706Z,64.72
2019-02-27T19:23:27.704Z,64.72
2019-02-27T19:29:31.849Z,67.21
2019-02-27T19:31:13.525Z,65.77
2019-02-27T19:32:11.505Z,65.96
2019-02-27T19:33:11.499Z,65.30
2019-02-27T19:34:11.499Z,66.35
2019-02-27T19:35:11.496Z,66.72
2019-02-27T19:36:18.917Z,65.67
2019-02-27T19:37:11.488Z,65.67
2019-02-27T19:38:13.051Z,65.39
2019-02-27T19:39:11.482Z,64.72
2019-02-27T19:40:53.892Z,67.17
2019-02-27T19:41:53.893Z,66.88
2019-02-27T19:43:36.308Z,66.69
2019-02-27T19:44:36.297Z,66.12
2019-02-27T19:45:36.651Z,67.65
2019-02-27T19:47:36.289Z,68.79
2019-02-27T19:48:36.283Z,69.74
2019-02-27T19:52:01.968Z,66.02
2019-02-27T19:53:05.142Z,64.69
2019-02-27T19:54:01.961Z,65.64
2019-02-27T19:55:01.961Z,66.12
2019-02-27T19:56:01.955Z,67.27
2019-02-27T19:57:01.955Z,68.51
2019-02-27T19:58:01.949Z,70.22
2019-02-27T19:59:01.954Z,69.74
2019-02-27T20:00:01.963Z,69.65
2019-02-27T20:01:01.942Z,69.08
2019-02-27T20:02:49.358Z,68.60
2019-02-27T20:03:49.355Z,68.79
2019-02-27T20:04:49.350Z,66.31
2019-02-27T20:05:50.593Z,64.40
2019-02-27T20:08:45.346Z,63.83
2019-02-27T20:09:44.592Z,65.36
2019-02-27T20:10:41.763Z,66.41
2019-02-27T20:13:46.657Z,67.46
2019-02-27T20:16:31.764Z,67.83
2019-02-27T20:17:33.057Z,67.65
2019-02-27T20:18:31.507Z,68.98
2019-02-27T20:19:31.505Z,69.74
2019-02-27T20:22:11.352Z,66.09
2019-02-27T20:23:11.348Z,65.45
2019-02-27T20:24:14.479Z,64.65
2019-02-27T20:25:12.556Z,66.12
2019-02-27T20:26:14.082Z,66.18
2019-02-27T20:27:11.333Z,65.80
2019-02-27T20:28:11.329Z,64.88
2019-02-27T20:29:11.327Z,65.64
2019-02-27T20:30:14.077Z,64.97
2019-02-27T20:31:11.319Z,64.78
2019-02-27T20:32:11.313Z,64.65
2019-02-27T20:33:11.316Z,64.65
2019-02-27T20:34:11.776Z,64.88
2019-02-27T20:35:11.320Z,65.45
2019-02-27T20:36:11.299Z,64.88
2019-02-27T20:37:11.297Z,64.78
2019-02-27T20:38:15.372Z,64.40
2019-02-27T20:39:11.290Z,64.40
2019-02-27T20:40:11.299Z,64.78
2019-02-27T20:41:11.289Z,64.56
2019-02-27T20:42:13.725Z,64.31
2019-02-27T20:43:11.277Z,64.88
2019-02-27T20:44:11.270Z,64.69
2019-02-27T20:45:11.268Z,64.85
2019-02-27T20:46:11.268Z,65.07
2019-02-27T20:47:11.270Z,64.59
2019-02-27T20:48:11.268Z,64.50
2019-02-27T20:49:14.042Z,64.31
2019-02-27T20:50:11.247Z,64.31
2019-02-27T20:51:53.654Z,64.78
2019-02-27T20:55:34.374Z,64.31
2019-02-27T20:56:35.971Z,64.31
2019-02-27T20:57:34.358Z,65.17
2019-02-27T20:58:34.357Z,64.69
2019-02-27T20:59:34.351Z,64.78
2019-02-27T21:00:36.581Z,65.74
2019-02-27T21:01:34.389Z,65.64
2019-02-27T21:02:34.357Z,64.97
2019-02-27T21:03:34.345Z,65.55
2019-02-27T21:04:35.261Z,65.64
2019-02-27T21:05:34.330Z,65.36
2019-02-27T21:06:34.328Z,65.45
2019-02-27T21:07:34.321Z,65.36
2019-02-27T21:08:36.142Z,65.55
2019-02-27T21:09:34.314Z,65.45
2019-02-27T21:10:34.312Z,65.26
2019-02-27T21:11:36.116Z,65.45
2019-02-27T21:12:34.305Z,65.55
2019-02-27T21:13:34.299Z,65.64
2019-02-27T21:14:34.306Z,65.55
2019-02-27T21:15:34.296Z,66.31
2019-02-27T21:16:34.303Z,64.97
2019-02-27T21:17:34.298Z,65.45
2019-02-27T21:18:34.284Z,65.83
2019-02-27T21:19:37.228Z,66.22
2019-02-27T21:20:34.566Z,66.22
2019-02-27T21:21:34.271Z,66.22
2019-02-27T21:22:34.268Z,66.41
2019-02-27T21:23:34.271Z,66.31
2019-02-27T21:24:34.265Z,66.31
2019-02-27T21:25:34.255Z,66.31
2019-02-27T21:26:34.254Z,66.41
2019-02-27T21:27:34.254Z,66.12
2019-02-27T21:28:34.246Z,66.41
2019-02-27T21:29:34.240Z,66.78
2019-02-27T21:30:34.242Z,67.33
2019-02-27T21:31:34.234Z,67.46
2019-02-27T21:32:36.156Z,67.36
2019-02-27T21:33:34.226Z,67.74
2019-02-27T21:34:34.225Z,67.42
2019-02-27T21:35:34.219Z,68.03
2019-02-27T21:36:36.661Z,68.12
2019-02-27T21:37:34.211Z,67.93
2019-02-27T21:38:34.210Z,68.47
2019-02-27T21:39:34.207Z,68.66
2019-02-27T21:40:36.238Z,69.04
2019-02-27T21:41:34.197Z,69.04
2019-02-27T21:43:25.244Z,69.43
2019-02-27T21:44:25.508Z,69.62
2019-02-27T21:45:24.227Z,69.14
2019-02-27T21:52:22.413Z,70.38
2019-02-27T21:54:08.118Z,70.86
2019-02-27T21:56:08.065Z,71.14
2019-02-27T21:57:08.059Z,71.81
2019-02-27T21:58:08.057Z,72.19
2019-02-27T21:59:08.050Z,72.76
2019-02-27T22:00:08.051Z,72.96
2019-02-27T22:01:08.043Z,73.05
2019-02-27T22:02:08.042Z,73.24
2019-02-27T22:03:08.036Z,74.01
2019-02-27T22:04:09.703Z,73.72
2019-02-27T22:05:08.028Z,73.62
2019-02-27T22:06:08.026Z,73.72
2019-02-27T22:07:08.019Z,73.72
2019-02-27T22:08:08.022Z,73.62
2019-02-27T22:09:10.197Z,74.19
2019-02-27T22:11:20.475Z,73.72
2019-02-27T22:12:21.079Z,73.62
2019-02-27T22:13:28.928Z,74.38
2019-02-27T22:14:20.465Z,73.62
2019-02-27T22:15:22.928Z,74.48
2019-02-27T22:16:20.456Z,74.48
2019-02-27T22:17:20.451Z,73.56
2019-02-27T22:18:20.449Z,73.18
2019-02-27T22:19:20.443Z,73.56
2019-02-27T22:20:20.441Z,73.33
2019-02-27T22:21:20.437Z,73.66
2019-02-27T22:22:20.436Z,73.66
2019-02-27T22:23:20.435Z,73.37
2019-02-27T22:24:21.003Z,73.72
2019-02-27T22:27:46.757Z,73.91
2019-02-27T22:28:46.110Z,74.38
2019-02-27T22:29:47.309Z,74.67
2019-02-27T22:30:46.094Z,74.48
2019-02-27T22:31:46.089Z,74.86
2019-02-27T22:32:48.100Z,74.86
2019-02-27T22:33:46.080Z,74.86
2019-02-27T22:34:46.077Z,75.43
2019-02-27T22:35:46.074Z,75.15
2019-02-27T22:36:46.070Z,75.24
2019-02-27T22:37:51.137Z,75.24
2019-02-27T22:38:46.062Z,75.24
2019-02-27T22:39:46.065Z,75.34
2019-02-27T22:41:28.467Z,75.72
2019-02-27T22:44:03.329Z,75.62
2019-02-27T22:45:04.158Z,75.72
2019-02-27T22:46:03.292Z,75.81
2019-02-27T22:47:05.916Z,75.91
2019-02-27T22:48:03.285Z,76.29
2019-02-27T22:49:03.285Z,75.91
2019-02-27T22:50:06.251Z,75.91
2019-02-27T22:51:03.274Z,76.39
2019-02-27T22:52:03.269Z,76.01
2019-02-27T22:53:03.266Z,76.67
2019-02-27T22:54:03.270Z,76.57
2019-02-27T22:55:03.257Z,76.77
2019-02-27T22:56:03.252Z,76.35
2019-02-27T22:57:03.250Z,76.48
2019-02-27T22:59:38.161Z,77.49
2019-02-27T23:02:40.526Z,77.59
2019-02-27T23:03:40.522Z,77.20
2019-02-27T23:04:40.515Z,77.30
2019-02-27T23:05:40.518Z,77.20
2019-02-27T23:06:40.506Z,77.01
2019-02-27T23:07:40.505Z,77.20
2019-02-27T23:08:40.500Z,77.01
2019-02-27T23:09:40.499Z,77.40
2019-02-27T23:11:27.910Z,77.59
2019-02-27T23:12:27.910Z,77.78
2019-02-27T23:13:27.905Z,77.78
2019-02-27T23:14:27.899Z,77.78
2019-02-27T23:15:27.896Z,77.69
2019-02-27T23:18:40.281Z,77.01
2019-02-27T23:19:37.790Z,77.59
2019-02-27T23:20:37.785Z,77.30
2019-02-27T23:21:37.783Z,77.59
2019-02-27T23:22:37.775Z,77.59
2019-02-27T23:23:37.773Z,77.59
2019-02-27T23:25:20.179Z,77.69
2019-02-27T23:26:21.010Z,77.36
2019-02-27T23:27:20.172Z,77.49
2019-02-27T23:28:20.169Z,77.40
2019-02-27T23:29:20.159Z,77.40
2019-02-27T23:30:20.158Z,77.40
2019-02-27T23:31:23.384Z,77.69
2019-02-27T23:32:20.150Z,77.55
2019-02-27T23:33:20.141Z,77.93
2019-02-27T23:34:20.140Z,78.35
2019-02-27T23:35:20.130Z,78.22
2019-02-27T23:36:21.973Z,77.93
2019-02-27T23:37:20.137Z,77.93
2019-02-27T23:38:20.119Z,78.12
2019-02-27T23:39:20.111Z,78.22
2019-02-27T23:40:20.111Z,78.50
2019-02-27T23:41:23.087Z,78.59
2019-02-27T23:42:20.103Z,79.17
2019-02-27T23:43:20.091Z,78.78
2019-02-27T23:44:20.089Z,78.88
2019-02-27T23:45:20.082Z,79.17
2019-02-27T23:46:20.079Z,79.07
2019-02-27T23:47:20.071Z,79.17
2019-02-27T23:48:20.069Z,79.17
2019-02-27T23:49:20.061Z,79.07
2019-02-27T23:50:20.059Z,79.17
2019-02-27T23:51:20.051Z,79.13
2019-02-27T23:52:22.422Z,79.64
2019-02-27T23:53:20.042Z,79.70
2019-02-27T23:54:20.343Z,79.80
2019-02-27T23:55:20.032Z,79.89
2019-02-27T23:56:20.655Z,80.27
2019-02-27T23:57:20.020Z,79.99
2019-02-27T23:58:20.017Z,80.36
2019-02-27T23:59:20.009Z,80.27
